Time;durP1;ratioP1;P1;durP2;ratioP2;P2;SDS_P1;SDS_P2;PMS_P1;PMS_P2;Temp;Humidity;BMP_temperature;BMP_pressure;BME280_temperature;BME280_humidity;BME280_pressure;Samples;Min_cycle;Max_cycle;Signal;HPM_P1;HPM_P2
2022/03/20 00:01:27;;;;;;;8.25;5.00;;;;;;;;;;5084320;28;20059;-77
2022/03/20 00:03:55;;;;;;;12.60;5.50;;;;;;;;;;5080701;28;20457;-77
2022/03/20 00:06:22;;;;;;;10.45;5.40;;;;;;;;;;5080001;28;20052;-77
2022/03/20 00:08:52;;;;;;;9.93;4.55;;;;;;;;;;5075251;28;20152;-77
2022/03/20 00:11:19;;;;;;;10.85;5.05;;;;;;;;;;5084264;28;20056;-76
2022/03/20 00:13:46;;;;;;;8.48;4.80;;;;;;;;;;5078799;28;20131;-78
2022/03/20 00:16:13;;;;;;;9.15;4.68;;;;;;;;;;5084663;28;20062;-77
2022/03/20 00:18:41;;;;;;;8.88;5.07;;;;;;;;;;5083571;28;20044;-77
2022/03/20 00:21:11;;;;;;;10.32;4.93;;;;;;;;;;5081343;28;20449;-77
2022/03/20 00:23:39;;;;;;;9.02;4.90;;;;;;;;;;5079843;28;20056;-77
2022/03/20 00:26:08;;;;;;;11.98;5.80;;;;;;;;;;5081425;28;20101;-77
2022/03/20 00:28:35;;;;;;;12.32;5.40;;;;;;;;;;5079075;28;20052;-77
2022/03/20 00:31:02;;;;;;;11.18;4.85;;;;;;;;;;5083935;28;20066;-77
2022/03/20 00:33:29;;;;;;;10.52;5.00;;;;;;;;;;5083816;28;20056;-77
2022/03/20 00:35:56;;;;;;;9.18;4.80;;;;;;;;;;5077051;28;20068;-77
2022/03/20 00:38:24;;;;;;;8.23;5.03;;;;;;;;;;5082816;28;20524;-77
2022/03/20 00:40:51;;;;;;;11.77;5.65;;;;;;;;;;5083981;28;20055;-77
2022/03/20 00:43:20;;;;;;;11.75;5.47;;;;;;;;;;5079534;28;20097;-77
2022/03/20 00:45:47;;;;;;;10.40;5.22;;;;;;;;;;5083242;28;20498;-77
2022/03/20 00:48:15;;;;;;;10.65;5.72;;;;;;;;;;5078953;28;20089;-77
2022/03/20 00:50:42;;;;;;;11.25;5.28;;;;;;;;;;5083276;28;20114;-77
2022/03/20 00:53:09;;;;;;;11.20;5.40;;;;;;;;;;5083375;28;20040;-77
2022/03/20 00:55:36;;;;;;;13.60;5.60;;;;;;;;;;5083473;28;20056;-77
2022/03/20 00:58:04;;;;;;;9.60;5.72;;;;;;;;;;5083443;28;20509;-77
2022/03/20 01:00:33;;;;;;;12.32;5.30;;;;;;;;;;5082671;28;20060;-77
2022/03/20 01:03:00;;;;;;;11.68;5.70;;;;;;;;;;5081555;28;20484;-77
2022/03/20 01:05:27;;;;;;;9.40;5.18;;;;;;;;;;5078796;28;20367;-77
2022/03/20 01:07:55;;;;;;;10.60;5.85;;;;;;;;;;5082172;28;20501;-77
2022/03/20 01:10:22;;;;;;;11.52;5.93;;;;;;;;;;5084332;28;20053;-77
2022/03/20 01:12:49;;;;;;;10.95;5.40;;;;;;;;;;5085921;28;20632;-77
2022/03/20 01:15:16;;;;;;;11.38;6.40;;;;;;;;;;5086743;28;20044;-77
2022/03/20 01:17:45;;;;;;;8.85;5.65;;;;;;;;;;5084946;28;20072;-77
2022/03/20 01:20:12;;;;;;;11.85;5.78;;;;;;;;;;5085745;28;20081;-77
2022/03/20 01:22:40;;;;;;;9.40;5.72;;;;;;;;;;5086101;28;20054;-77
2022/03/20 01:25:08;;;;;;;13.20;5.90;;;;;;;;;;5081621;28;20437;-77
2022/03/20 01:27:36;;;;;;;9.45;5.95;;;;;;;;;;5085982;28;20051;-77
2022/03/20 01:30:03;;;;;;;12.93;5.82;;;;;;;;;;5084036;28;20421;-77
2022/03/20 01:32:30;;;;;;;8.60;5.47;;;;;;;;;;5084633;28;20039;-77
2022/03/20 01:34:59;;;;;;;12.70;5.75;;;;;;;;;;5085776;28;20052;-77
2022/03/20 01:37:26;;;;;;;11.50;6.15;;;;;;;;;;5081002;28;20688;-77
2022/03/20 01:39:54;;;;;;;8.98;5.40;;;;;;;;;;5082448;28;20052;-77
2022/03/20 01:42:21;;;;;;;9.63;5.60;;;;;;;;;;5087107;28;20519;-76
2022/03/20 01:44:49;;;;;;;11.98;5.90;;;;;;;;;;5085925;28;20048;-76
2022/03/20 01:47:16;;;;;;;10.48;5.80;;;;;;;;;;5079405;28;20677;-76
2022/03/20 01:49:43;;;;;;;14.63;6.35;;;;;;;;;;5082331;28;20109;-76
2022/03/20 01:52:13;;;;;;;11.13;5.88;;;;;;;;;;5082990;28;20052;-77
2022/03/20 01:54:41;;;;;;;14.00;5.78;;;;;;;;;;5084295;28;20052;-77
2022/03/20 01:57:09;;;;;;;12.48;6.25;;;;;;;;;;5082540;28;20052;-76
2022/03/20 01:59:37;;;;;;;13.32;5.82;;;;;;;;;;5077952;28;20063;-77
2022/03/20 02:02:04;;;;;;;11.73;5.88;;;;;;;;;;5085822;28;20060;-77
2022/03/20 02:04:32;;;;;;;9.93;5.78;;;;;;;;;;5085281;28;20036;-77
2022/03/20 02:07:00;;;;;;;13.25;6.00;;;;;;;;;;5086199;28;20120;-76
2022/03/20 02:09:29;;;;;;;11.07;5.60;;;;;;;;;;5086467;28;20562;-76
2022/03/20 02:11:56;;;;;;;12.05;6.38;;;;;;;;;;5085404;28;20044;-76
2022/03/20 02:14:23;;;;;;;13.60;6.30;;;;;;;;;;5079674;28;20044;-76
2022/03/20 02:16:51;;;;;;;16.00;6.60;;;;;;;;;;5084984;28;20056;-76
2022/03/20 02:19:19;;;;;;;15.18;6.20;;;;;;;;;;5085187;28;20047;-76
2022/03/20 02:21:48;;;;;;;15.70;6.60;;;;;;;;;;5080624;28;20056;-76
2022/03/20 02:24:38;;;;;;;15.05;6.50;;;;;;;;;;5082979;28;20149;-76
2022/03/20 02:27:11;;;;;;;14.27;7.00;;;;;;;;;;5080266;28;20155;-76
2022/03/20 02:29:39;;;;;;;14.57;7.05;;;;;;;;;;5085534;28;20039;-77
2022/03/20 02:32:07;;;;;;;17.33;6.65;;;;;;;;;;5083117;28;20075;-77
2022/03/20 02:34:35;;;;;;;13.43;7.05;;;;;;;;;;5084863;28;20049;-77
2022/03/20 02:37:04;;;;;;;11.73;6.15;;;;;;;;;;5085867;28;20056;-76
2022/03/20 02:39:32;;;;;;;8.57;5.88;;;;;;;;;;5086735;28;20044;-76
2022/03/20 02:42:01;;;;;;;13.80;6.20;;;;;;;;;;5081678;28;20101;-76
2022/03/20 02:44:47;;;;;;;12.98;7.28;;;;;;;;;;5084960;28;20044;-76
2022/03/20 02:47:15;;;;;;;14.95;6.90;;;;;;;;;;5083901;28;20143;-76
2022/03/20 02:49:42;;;;;;;14.13;7.00;;;;;;;;;;5084269;28;20121;-76
2022/03/20 02:52:11;;;;;;;14.50;7.28;;;;;;;;;;5086321;28;20048;-76
2022/03/20 02:54:38;;;;;;;12.77;7.57;;;;;;;;;;5084701;28;20506;-76
2022/03/20 02:57:08;;;;;;;15.88;7.40;;;;;;;;;;5085120;28;20428;-76
2022/03/20 02:59:35;;;;;;;13.05;7.30;;;;;;;;;;5085006;28;20118;-77
2022/03/20 03:02:02;;;;;;;15.18;7.80;;;;;;;;;;5080238;28;20096;-77
2022/03/20 03:04:31;;;;;;;15.38;7.75;;;;;;;;;;5083399;28;20089;-77
2022/03/20 03:07:03;;;;;;;16.60;7.50;;;;;;;;;;5080673;28;20784;-77
2022/03/20 03:12:16;;;;;;;15.52;7.22;;;;;;;;;;5082391;28;20067;-77
2022/03/20 03:17:31;;;;;;;20.63;8.65;;;;;;;;;;5082791;28;20059;-76
2022/03/20 03:19:58;;;;;;;15.10;7.90;;;;;;;;;;5079800;28;20482;-76
2022/03/20 03:22:26;;;;;;;16.08;8.30;;;;;;;;;;5084130;28;20044;-76
2022/03/20 03:24:55;;;;;;;20.15;8.70;;;;;;;;;;5083259;28;20109;-76
2022/03/20 03:27:22;;;;;;;16.90;9.32;;;;;;;;;;5078659;28;20109;-76
2022/03/20 03:29:50;;;;;;;18.00;8.38;;;;;;;;;;5083954;28;20180;-76
2022/03/20 03:32:17;;;;;;;17.13;8.38;;;;;;;;;;5081872;28;20060;-76
2022/03/20 03:37:29;;;;;;;20.67;8.82;;;;;;;;;;5079069;28;20040;-76
2022/03/20 03:39:58;;;;;;;18.00;8.63;;;;;;;;;;5085200;28;20105;-77
2022/03/20 03:42:25;;;;;;;16.88;9.07;;;;;;;;;;5081595;28;20056;-77
2022/03/20 03:44:53;;;;;;;19.98;9.45;;;;;;;;;;5084890;28;20112;-77
2022/03/20 03:47:20;;;;;;;21.60;9.68;;;;;;;;;;5084706;28;20051;-77
2022/03/20 03:49:48;;;;;;;18.50;8.57;;;;;;;;;;5084968;28;20063;-77
2022/03/20 03:52:15;;;;;;;19.58;9.80;;;;;;;;;;5080890;28;20048;-77
2022/03/20 03:54:42;;;;;;;19.50;10.23;;;;;;;;;;5080381;28;20067;-76
2022/03/20 03:57:11;;;;;;;17.77;9.40;;;;;;;;;;5084849;28;20490;-76
2022/03/20 03:59:38;;;;;;;18.33;10.30;;;;;;;;;;5077801;28;20052;-77
2022/03/20 04:02:06;;;;;;;16.50;10.38;;;;;;;;;;5084378;28;20056;-76
2022/03/20 04:04:33;;;;;;;19.98;9.82;;;;;;;;;;5076459;28;20048;-76
2022/03/20 04:07:00;;;;;;;17.50;9.55;;;;;;;;;;5083041;28;20499;-76
2022/03/20 04:09:27;;;;;;;19.58;10.02;;;;;;;;;;5079456;28;20059;-76
2022/03/20 04:11:54;;;;;;;19.73;10.10;;;;;;;;;;5084162;28;20063;-76
2022/03/20 04:14:23;;;;;;;18.15;9.57;;;;;;;;;;5083985;28;20048;-76
2022/03/20 04:16:54;;;;;;;27.25;10.65;;;;;;;;;;5077263;28;20113;-76
2022/03/20 04:19:21;;;;;;;18.48;10.02;;;;;;;;;;5082413;28;20436;-76
2022/03/20 04:21:49;;;;;;;16.73;9.63;;;;;;;;;;5077379;28;20051;-76
2022/03/20 04:24:16;;;;;;;18.05;10.50;;;;;;;;;;5083790;28;20135;-76
2022/03/20 04:26:44;;;;;;;17.98;10.00;;;;;;;;;;5080274;28;20503;-76
2022/03/20 04:29:11;;;;;;;17.10;10.57;;;;;;;;;;5083623;28;20113;-76
2022/03/20 04:31:41;;;;;;;20.48;10.55;;;;;;;;;;5084019;28;20059;-76
2022/03/20 04:34:10;;;;;;;18.98;10.15;;;;;;;;;;5083952;28;20157;-76
2022/03/20 04:36:37;;;;;;;20.88;11.07;;;;;;;;;;5081097;28;20154;-76
2022/03/20 04:39:04;;;;;;;19.20;10.52;;;;;;;;;;5082962;28;20067;-76
2022/03/20 04:41:32;;;;;;;22.20;10.98;;;;;;;;;;5084330;28;20052;-76
2022/03/20 04:44:00;;;;;;;17.33;11.05;;;;;;;;;;5083578;28;20063;-77
2022/03/20 04:46:28;;;;;;;19.25;11.05;;;;;;;;;;5080186;28;20079;-77
2022/03/20 04:59:55;;;;;;;20.33;11.45;;;;;;;;;;5116083;27;20059;-77
2022/03/20 05:02:23;;;;;;;19.05;11.75;;;;;;;;;;5084602;28;20135;-76
2022/03/20 05:04:52;;;;;;;22.27;12.20;;;;;;;;;;5082251;28;20429;-76
2022/03/20 05:07:20;;;;;;;23.90;12.13;;;;;;;;;;5086873;28;20813;-77
2022/03/20 05:15:17;;;;;;;21.33;12.75;;;;;;;;;;5085418;28;20509;-77
2022/03/20 05:17:45;;;;;;;20.48;11.43;;;;;;;;;;5075538;28;20063;-76
2022/03/20 05:20:14;;;;;;;17.42;11.25;;;;;;;;;;5086334;28;20043;-76
2022/03/20 05:22:42;;;;;;;22.17;11.90;;;;;;;;;;5085838;28;20055;-76
2022/03/20 05:25:10;;;;;;;22.00;11.52;;;;;;;;;;5084984;28;20049;-76
2022/03/20 05:27:37;;;;;;;22.40;12.20;;;;;;;;;;5086375;28;20216;-76
2022/03/20 05:30:07;;;;;;;25.15;12.90;;;;;;;;;;5084166;28;20055;-76
2022/03/20 05:32:35;;;;;;;25.55;12.50;;;;;;;;;;5082202;28;20048;-77
2022/03/20 05:35:04;;;;;;;22.02;11.73;;;;;;;;;;5083054;28;20101;-77
2022/03/20 05:37:32;;;;;;;24.27;12.70;;;;;;;;;;5089431;28;20059;-77
2022/03/20 05:40:00;;;;;;;22.67;13.00;;;;;;;;;;5082493;28;20056;-76
2022/03/20 05:42:27;;;;;;;20.17;11.32;;;;;;;;;;5085780;28;20064;-76
2022/03/20 05:44:54;;;;;;;21.58;13.35;;;;;;;;;;5086758;28;20116;-77
2022/03/20 05:47:22;;;;;;;25.65;12.82;;;;;;;;;;5082187;28;20044;-76
2022/03/20 05:49:49;;;;;;;23.65;13.25;;;;;;;;;;5078088;28;20044;-76
2022/03/20 05:52:17;;;;;;;21.88;13.00;;;;;;;;;;5083563;28;20403;-76
2022/03/20 05:54:45;;;;;;;24.88;12.98;;;;;;;;;;5081212;28;20121;-76
2022/03/20 05:59:59;;;;;;;21.60;12.50;;;;;;;;;;5080899;27;20048;-76
2022/03/20 06:02:27;;;;;;;20.50;12.40;;;;;;;;;;5079388;28;21559;-76
2022/03/20 06:04:54;;;;;;;24.60;14.00;;;;;;;;;;5081723;28;20063;-77
2022/03/20 06:07:21;;;;;;;20.83;13.25;;;;;;;;;;5087236;28;20051;-76
2022/03/20 06:09:50;;;;;;;22.70;13.23;;;;;;;;;;5085369;28;20550;-76
2022/03/20 06:12:17;;;;;;;25.90;13.93;;;;;;;;;;5078916;28;20063;-76
2022/03/20 06:14:44;;;;;;;24.00;13.00;;;;;;;;;;5085698;28;20520;-76
2022/03/20 06:17:13;;;;;;;25.65;13.52;;;;;;;;;;5083795;28;20067;-76
2022/03/20 06:19:40;;;;;;;22.08;12.90;;;;;;;;;;5079227;28;20466;-76
2022/03/20 06:22:07;;;;;;;21.13;12.93;;;;;;;;;;5081575;28;20047;-76
2022/03/20 06:24:35;;;;;;;24.77;13.85;;;;;;;;;;5077677;28;20048;-76
2022/03/20 06:27:04;;;;;;;24.38;13.60;;;;;;;;;;5080172;28;20044;-76
2022/03/20 06:29:31;;;;;;;23.27;13.45;;;;;;;;;;5077584;28;20119;-76
2022/03/20 06:31:58;;;;;;;26.77;13.10;;;;;;;;;;5083903;28;20149;-77
2022/03/20 06:34:26;;;;;;;22.83;14.35;;;;;;;;;;5085513;28;20159;-76
2022/03/20 06:36:57;;;;;;;21.90;13.48;;;;;;;;;;5085351;28;20048;-76
2022/03/20 06:39:24;;;;;;;25.83;13.57;;;;;;;;;;5079210;28;20429;-76
2022/03/20 06:41:51;;;;;;;24.08;13.77;;;;;;;;;;5082566;28;20048;-76
2022/03/20 06:44:21;;;;;;;22.35;13.18;;;;;;;;;;5082120;28;20052;-76
2022/03/20 06:46:48;;;;;;;28.30;13.65;;;;;;;;;;5080724;28;20044;-76
2022/03/20 06:49:16;;;;;;;26.00;13.80;;;;;;;;;;5083795;28;20058;-76
2022/03/20 06:51:43;;;;;;;28.10;14.15;;;;;;;;;;5080394;28;20060;-76
2022/03/20 06:54:10;;;;;;;21.83;13.80;;;;;;;;;;5083841;28;20052;-76
2022/03/20 06:56:37;;;;;;;26.88;14.30;;;;;;;;;;5083751;28;20052;-76
2022/03/20 06:59:04;;;;;;;24.48;13.93;;;;;;;;;;5084839;28;20056;-76
2022/03/20 07:01:33;;;;;;;25.40;13.70;;;;;;;;;;5084602;28;20418;-76
2022/03/20 07:04:00;;;;;;;22.70;14.05;;;;;;;;;;5084359;28;20449;-76
2022/03/20 07:06:29;;;;;;;25.27;13.65;;;;;;;;;;5089243;28;20039;-76
2022/03/20 07:08:59;;;;;;;24.52;14.18;;;;;;;;;;5086785;28;20142;-76
2022/03/20 07:11:32;;;;;;;21.80;13.10;;;;;;;;;;5079717;28;20436;-76
2022/03/20 07:14:00;;;;;;;23.35;13.60;;;;;;;;;;5081805;28;20048;-77
2022/03/20 07:16:31;;;;;;;28.13;14.00;;;;;;;;;;5086847;28;20073;-77
2022/03/20 07:19:00;;;;;;;22.27;13.80;;;;;;;;;;5083626;28;20063;-77
2022/03/20 07:21:28;;;;;;;22.83;13.30;;;;;;;;;;5084354;28;20750;-77
2022/03/20 07:23:57;;;;;;;23.25;14.50;;;;;;;;;;5095456;28;20056;-77
2022/03/20 07:31:54;;;;;;;21.42;13.77;;;;;;;;;;5113121;27;20101;-77
2022/03/20 07:34:23;;;;;;;20.10;13.40;;;;;;;;;;5082452;28;20431;-76
2022/03/20 07:36:50;;;;;;;24.55;13.48;;;;;;;;;;5082506;28;20063;-76
2022/03/20 07:39:18;;;;;;;30.20;14.23;;;;;;;;;;5080770;28;20072;-77
2022/03/20 07:41:45;;;;;;;23.98;13.30;;;;;;;;;;5077927;28;20228;-77
2022/03/20 07:44:12;;;;;;;24.85;13.90;;;;;;;;;;5082475;28;20056;-78
2022/03/20 07:46:40;;;;;;;26.63;13.70;;;;;;;;;;5082521;28;21608;-77
2022/03/20 07:49:08;;;;;;;24.00;13.80;;;;;;;;;;5083428;28;20051;-77
2022/03/20 07:51:38;;;;;;;26.95;14.07;;;;;;;;;;5085745;28;20572;-77
2022/03/20 07:54:05;;;;;;;26.17;14.70;;;;;;;;;;5093455;28;20050;-77
2022/03/20 07:56:35;;;;;;;22.10;14.20;;;;;;;;;;5084009;28;20048;-77
2022/03/20 07:59:06;;;;;;;27.73;14.90;;;;;;;;;;5090635;28;20066;-76
2022/03/20 08:01:33;;;;;;;30.15;13.75;;;;;;;;;;5083346;28;20051;-76
2022/03/20 08:04:00;;;;;;;36.50;14.30;;;;;;;;;;5115168;27;20134;-76
2022/03/20 08:06:28;;;;;;;20.20;12.85;;;;;;;;;;5086060;28;20055;-76
2022/03/20 08:08:59;;;;;;;32.47;13.93;;;;;;;;;;5086519;28;20130;-76
2022/03/20 08:11:27;;;;;;;20.20;13.25;;;;;;;;;;5084943;28;20047;-76
2022/03/20 08:13:54;;;;;;;22.35;13.40;;;;;;;;;;5090409;28;20051;-76
2022/03/20 08:16:22;;;;;;;27.73;14.05;;;;;;;;;;5089424;28;20045;-76
2022/03/20 08:18:49;;;;;;;23.65;14.55;;;;;;;;;;5077370;28;20056;-76
2022/03/20 08:21:17;;;;;;;30.10;14.52;;;;;;;;;;5080990;28;20054;-76
2022/03/20 08:23:44;;;;;;;24.40;12.30;;;;;;;;;;5083795;28;20105;-76
2022/03/20 08:26:13;;;;;;;22.27;12.88;;;;;;;;;;5081158;28;20127;-76
2022/03/20 08:28:41;;;;;;;24.40;12.80;;;;;;;;;;5083066;28;20051;-76
2022/03/20 08:31:09;;;;;;;24.55;13.80;;;;;;;;;;5088374;28;20044;-76
2022/03/20 08:33:37;;;;;;;22.75;13.52;;;;;;;;;;5082164;28;20048;-76
2022/03/20 08:36:05;;;;;;;25.63;13.93;;;;;;;;;;5082914;28;20048;-76
2022/03/20 08:38:33;;;;;;;23.98;13.60;;;;;;;;;;5084373;28;20495;-76
2022/03/20 08:41:00;;;;;;;20.98;13.35;;;;;;;;;;5077136;28;20074;-76
2022/03/20 08:43:29;;;;;;;23.00;13.80;;;;;;;;;;5073156;28;20245;-77
2022/03/20 08:45:56;;;;;;;22.42;13.38;;;;;;;;;;5076845;28;20390;-76
2022/03/20 08:48:23;;;;;;;23.80;13.88;;;;;;;;;;5074830;28;20044;-76
2022/03/20 08:50:51;;;;;;;22.60;13.82;;;;;;;;;;5075737;28;20060;-76
2022/03/20 08:53:18;;;;;;;22.15;14.40;;;;;;;;;;5073120;28;20149;-76
2022/03/20 08:55:46;;;;;;;22.95;13.45;;;;;;;;;;5073303;28;20149;-77
2022/03/20 08:58:13;;;;;;;41.75;14.77;;;;;;;;;;5084791;28;20067;-76
2022/03/20 09:00:42;;;;;;;24.70;13.65;;;;;;;;;;5082780;28;20105;-76
2022/03/20 09:03:10;;;;;;;24.52;14.48;;;;;;;;;;5087082;28;20058;-76
2022/03/20 09:05:38;;;;;;;25.17;15.05;;;;;;;;;;5082007;28;20101;-76
2022/03/20 09:08:05;;;;;;;22.73;14.38;;;;;;;;;;5096249;28;20455;-76
2022/03/20 09:10:33;;;;;;;25.10;14.43;;;;;;;;;;5084251;28;20060;-76
2022/03/20 09:13:00;;;;;;;30.58;14.57;;;;;;;;;;5086301;28;20062;-76
2022/03/20 09:15:30;;;;;;;29.50;15.02;;;;;;;;;;5091444;28;20139;-76
2022/03/20 09:20:44;;;;;;;28.25;14.82;;;;;;;;;;5087708;28;20480;-76
2022/03/20 09:23:12;;;;;;;26.98;15.40;;;;;;;;;;5078979;28;20430;-76
2022/03/20 09:25:40;;;;;;;24.73;14.40;;;;;;;;;;5081188;28;20937;-76
2022/03/20 09:28:10;;;;;;;25.73;14.73;;;;;;;;;;5081490;28;20168;-76
2022/03/20 09:30:38;;;;;;;26.10;15.18;;;;;;;;;;5087215;28;20429;-76
2022/03/20 09:33:08;;;;;;;26.17;15.93;;;;;;;;;;5085091;28;20155;-76
2022/03/20 09:35:35;;;;;;;25.33;15.00;;;;;;;;;;5085120;28;20040;-76
2022/03/20 09:38:03;;;;;;;40.38;15.38;;;;;;;;;;5086455;28;20052;-76
2022/03/20 09:40:31;;;;;;;34.55;15.85;;;;;;;;;;5085819;28;20055;-76
2022/03/20 09:42:58;;;;;;;26.90;16.02;;;;;;;;;;5083648;28;20048;-76
2022/03/20 09:45:25;;;;;;;28.98;15.90;;;;;;;;;;5078712;28;20495;-76
2022/03/20 09:47:53;;;;;;;21.83;14.40;;;;;;;;;;5076598;28;20055;-76
2022/03/20 09:50:22;;;;;;;22.58;15.13;;;;;;;;;;5080188;28;20085;-76
2022/03/20 09:52:50;;;;;;;22.42;15.10;;;;;;;;;;5081560;28;20056;-76
2022/03/20 09:55:17;;;;;;;26.80;15.43;;;;;;;;;;5081782;28;20387;-76
2022/03/20 09:57:44;;;;;;;25.48;15.77;;;;;;;;;;5085226;28;20106;-76
2022/03/20 10:00:14;;;;;;;29.02;15.02;;;;;;;;;;5080084;28;20517;-76
2022/03/20 10:02:42;;;;;;;28.40;15.88;;;;;;;;;;5085472;28;20502;-76
2022/03/20 10:05:10;;;;;;;26.80;15.85;;;;;;;;;;5082683;28;20457;-76
2022/03/20 10:07:40;;;;;;;28.67;16.08;;;;;;;;;;5085818;28;20052;-77
2022/03/20 10:10:11;;;;;;;27.40;15.85;;;;;;;;;;5083060;28;20059;-76
2022/03/20 10:12:40;;;;;;;25.70;15.65;;;;;;;;;;5083888;28;20117;-78
2022/03/20 10:15:09;;;;;;;32.97;15.95;;;;;;;;;;5084878;28;20564;-78
2022/03/20 10:17:37;;;;;;;26.95;16.33;;;;;;;;;;5085910;28;20055;-78
2022/03/20 10:20:14;;;;;;;27.77;15.90;;;;;;;;;;5085026;28;20054;-78
2022/03/20 10:22:44;;;;;;;27.30;15.75;;;;;;;;;;5085983;28;20522;-78
2022/03/20 10:25:12;;;;;;;23.40;15.40;;;;;;;;;;5085832;28;20067;-78
2022/03/20 10:27:39;;;;;;;25.30;15.57;;;;;;;;;;5083880;28;20131;-78
2022/03/20 10:30:09;;;;;;;25.15;15.80;;;;;;;;;;5082163;28;20060;-78
2022/03/20 10:32:36;;;;;;;23.10;15.77;;;;;;;;;;5083209;28;20043;-78
2022/03/20 10:35:05;;;;;;;27.73;16.15;;;;;;;;;;5081183;28;20052;-78
2022/03/20 10:37:47;;;;;;;30.50;16.48;;;;;;;;;;5086312;28;20055;-78
2022/03/20 10:40:17;;;;;;;26.33;16.40;;;;;;;;;;5081392;28;20056;-78
2022/03/20 10:42:45;;;;;;;25.52;16.17;;;;;;;;;;5080835;28;20138;-78
2022/03/20 10:45:12;;;;;;;27.42;16.50;;;;;;;;;;5086673;28;20107;-78
2022/03/20 10:47:39;;;;;;;27.10;17.10;;;;;;;;;;5082258;28;20583;-78
2022/03/20 10:50:08;;;;;;;29.73;16.33;;;;;;;;;;5084927;28;20044;-78
2022/03/20 10:52:36;;;;;;;27.23;17.27;;;;;;;;;;5084672;28;20113;-78
2022/03/20 10:55:08;;;;;;;25.25;16.80;;;;;;;;;;5086582;28;20077;-78
2022/03/20 10:57:38;;;;;;;25.35;16.95;;;;;;;;;;5110230;27;20052;-78
2022/03/20 11:00:06;;;;;;;27.55;17.85;;;;;;;;;;5080512;28;20052;-78
2022/03/20 11:02:36;;;;;;;28.42;17.05;;;;;;;;;;5080084;28;20056;-78
2022/03/20 11:05:04;;;;;;;25.23;17.42;;;;;;;;;;5080142;28;20131;-79
2022/03/20 11:07:31;;;;;;;24.52;16.73;;;;;;;;;;5081554;28;20483;-79
2022/03/20 11:10:00;;;;;;;28.17;16.88;;;;;;;;;;5084815;28;20461;-78
2022/03/20 11:12:29;;;;;;;27.65;16.58;;;;;;;;;;5078886;28;20052;-78
2022/03/20 11:15:01;;;;;;;24.60;16.90;;;;;;;;;;5083708;28;20051;-78
2022/03/20 11:17:30;;;;;;;30.55;18.05;;;;;;;;;;5083745;28;20059;-78
2022/03/20 11:19:58;;;;;;;25.52;16.27;;;;;;;;;;5085146;28;20051;-78
2022/03/20 11:22:26;;;;;;;31.10;17.30;;;;;;;;;;5084242;28;20052;-76
2022/03/20 11:24:55;;;;;;;24.48;16.75;;;;;;;;;;5080297;28;20056;-76
2022/03/20 11:27:24;;;;;;;27.60;17.33;;;;;;;;;;5081599;28;20048;-76
2022/03/20 11:29:52;;;;;;;26.98;16.95;;;;;;;;;;5114833;27;20060;-76
2022/03/20 11:32:21;;;;;;;25.88;17.52;;;;;;;;;;5086073;28;20043;-76
2022/03/20 11:34:49;;;;;;;30.65;17.77;;;;;;;;;;5078870;28;20864;-76
2022/03/20 11:37:17;;;;;;;25.83;18.55;;;;;;;;;;5083225;28;20051;-76
2022/03/20 11:40:02;;;;;;;28.63;18.08;;;;;;;;;;5083627;28;20048;-76
2022/03/20 11:42:30;;;;;;;23.55;16.58;;;;;;;;;;5091910;28;20048;-76
2022/03/20 11:45:11;;;;;;;23.20;17.70;;;;;;;;;;5080345;28;20056;-76
2022/03/20 11:47:40;;;;;;;31.27;17.75;;;;;;;;;;5082287;28;20043;-79
2022/03/20 11:50:08;;;;;;;29.23;17.60;;;;;;;;;;5084734;28;20048;-77
2022/03/20 11:52:46;;;;;;;25.60;18.02;;;;;;;;;;5084225;28;21330;-77
2022/03/20 11:55:26;;;;;;;26.05;18.73;;;;;;;;;;5085324;28;20753;-77
2022/03/20 11:57:53;;;;;;;25.15;17.05;;;;;;;;;;5082012;28;20052;-76
2022/03/20 12:00:24;;;;;;;26.27;17.77;;;;;;;;;;5084487;28;20044;-76
2022/03/20 12:03:10;;;;;;;26.10;18.58;;;;;;;;;;5083880;28;20125;-77
2022/03/20 12:05:39;;;;;;;29.52;18.10;;;;;;;;;;5079869;28;20073;-77
2022/03/20 12:08:20;;;;;;;27.40;18.20;;;;;;;;;;5083168;28;20105;-77
2022/03/20 12:10:51;;;;;;;25.15;17.70;;;;;;;;;;5081151;28;20080;-77
2022/03/20 12:13:25;;;;;;;25.67;18.30;;;;;;;;;;5085116;28;20052;-76
2022/03/20 12:15:55;;;;;;;25.95;18.60;;;;;;;;;;5080863;28;20056;-77
2022/03/20 12:18:23;;;;;;;24.80;17.17;;;;;;;;;;5081286;28;20097;-77
2022/03/20 12:21:02;;;;;;;24.17;17.98;;;;;;;;;;5078242;28;20422;-77
2022/03/20 12:23:39;;;;;;;24.38;18.63;;;;;;;;;;5081815;28;20106;-76
2022/03/20 12:26:46;;;;;;;25.52;18.35;;;;;;;;;;5082266;28;20081;-76
2022/03/20 12:29:32;;;;;;;22.98;18.13;;;;;;;;;;5026656;28;20645;-76
2022/03/20 12:32:01;;;;;;;25.13;19.83;;;;;;;;;;5027234;28;20057;-76
2022/03/20 12:34:30;;;;;;;25.17;18.52;;;;;;;;;;5060466;28;20067;-77
2022/03/20 12:37:12;;;;;;;26.77;18.70;;;;;;;;;;5083611;28;20130;-77
2022/03/20 12:39:54;;;;;;;28.10;19.30;;;;;;;;;;5079523;28;20059;-77
2022/03/20 12:42:22;;;;;;;31.58;18.25;;;;;;;;;;5082206;28;20051;-77
2022/03/20 12:44:50;;;;;;;29.65;19.02;;;;;;;;;;5079848;28;20063;-77
2022/03/20 12:47:18;;;;;;;27.52;18.85;;;;;;;;;;5084272;28;20044;-77
2022/03/20 12:49:47;;;;;;;26.52;18.95;;;;;;;;;;5081426;28;20134;-77
2022/03/20 12:52:15;;;;;;;23.95;18.95;;;;;;;;;;5081122;28;20052;-77
2022/03/20 12:54:42;;;;;;;28.45;19.00;;;;;;;;;;5080702;28;20055;-76
2022/03/20 12:57:09;;;;;;;25.75;18.00;;;;;;;;;;5082831;28;20051;-77
2022/03/20 12:59:36;;;;;;;24.88;18.33;;;;;;;;;;5077851;28;20395;-77
2022/03/20 13:02:08;;;;;;;25.77;18.60;;;;;;;;;;5081319;28;20052;-77
2022/03/20 13:04:35;;;;;;;24.73;18.50;;;;;;;;;;5079810;28;20052;-76
2022/03/20 13:07:23;;;;;;;22.70;17.70;;;;;;;;;;5079675;28;20060;-76
2022/03/20 13:09:57;;;;;;;24.77;18.13;;;;;;;;;;5084671;28;20055;-76
2022/03/20 13:12:25;;;;;;;25.48;17.77;;;;;;;;;;5077872;28;20048;-76
2022/03/20 13:14:55;;;;;;;24.42;17.90;;;;;;;;;;5085761;28;20516;-76
2022/03/20 13:17:25;;;;;;;25.33;17.60;;;;;;;;;;5088898;28;20951;-77
2022/03/20 13:19:53;;;;;;;25.13;18.60;;;;;;;;;;5079598;28;20063;-77
2022/03/20 13:22:21;;;;;;;29.45;17.83;;;;;;;;;;5081744;28;20044;-77
2022/03/20 13:24:49;;;;;;;25.38;18.13;;;;;;;;;;5084359;28;20468;-77
2022/03/20 13:27:17;;;;;;;27.52;18.48;;;;;;;;;;5083344;28;20052;-76
2022/03/20 13:29:52;;;;;;;22.67;17.50;;;;;;;;;;5084029;28;20048;-76
2022/03/20 13:32:22;;;;;;;24.85;18.35;;;;;;;;;;5085262;28;20084;-76
2022/03/20 13:34:50;;;;;;;26.67;18.48;;;;;;;;;;5087479;28;20733;-76
2022/03/20 13:37:18;;;;;;;22.50;17.75;;;;;;;;;;5083477;28;20052;-76
2022/03/20 13:39:47;;;;;;;26.75;18.52;;;;;;;;;;5084477;28;20105;-76
2022/03/20 13:42:16;;;;;;;24.27;18.27;;;;;;;;;;5086059;28;20830;-77
2022/03/20 13:44:43;;;;;;;26.00;18.40;;;;;;;;;;5084969;28;20110;-76
2022/03/20 13:47:11;;;;;;;27.73;18.75;;;;;;;;;;5087846;28;20510;-76
2022/03/20 13:49:38;;;;;;;26.63;18.65;;;;;;;;;;5084156;28;20073;-76
2022/03/20 13:52:06;;;;;;;30.75;19.65;;;;;;;;;;5087529;28;20048;-76
2022/03/20 13:54:36;;;;;;;27.30;19.35;;;;;;;;;;5086715;28;20056;-76
2022/03/20 13:57:09;;;;;;;27.92;18.90;;;;;;;;;;5086279;28;20056;-76
2022/03/20 13:59:50;;;;;;;26.35;19.40;;;;;;;;;;5086520;28;20113;-76
2022/03/20 14:02:17;;;;;;;27.17;18.35;;;;;;;;;;5076393;28;20049;-76
2022/03/20 14:04:46;;;;;;;25.83;19.08;;;;;;;;;;5079002;28;20056;-76
2022/03/20 14:07:20;;;;;;;27.15;19.63;;;;;;;;;;5086396;28;20157;-76
2022/03/20 14:09:48;;;;;;;25.85;19.27;;;;;;;;;;5081506;28;20402;-76
2022/03/20 14:12:28;;;;;;;28.15;18.15;;;;;;;;;;5084090;28;20049;-76
2022/03/20 14:14:56;;;;;;;29.33;18.70;;;;;;;;;;5084876;28;20056;-76
2022/03/20 14:17:43;;;;;;;26.80;18.63;;;;;;;;;;5084675;28;20055;-76
2022/03/20 14:20:12;;;;;;;27.55;18.17;;;;;;;;;;5084453;28;20403;-76
2022/03/20 14:22:43;;;;;;;28.63;20.08;;;;;;;;;;5085461;28;20044;-76
2022/03/20 14:25:13;;;;;;;29.88;19.48;;;;;;;;;;5083954;28;20052;-76
2022/03/20 14:27:42;;;;;;;27.88;19.42;;;;;;;;;;5081636;28;20140;-76
2022/03/20 14:41:27;;;;;;;32.75;18.45;;;;;;;;;;5114207;27;20124;-76
2022/03/20 14:44:10;;;;;;;29.17;18.98;;;;;;;;;;5084759;28;20048;-76
2022/03/20 14:46:39;;;;;;;26.98;19.13;;;;;;;;;;5076078;28;20612;-76
2022/03/20 14:49:07;;;;;;;27.35;19.42;;;;;;;;;;5086617;28;20074;-76
2022/03/20 14:51:34;;;;;;;26.77;18.95;;;;;;;;;;5082699;28;20048;-76
2022/03/20 14:54:02;;;;;;;30.10;19.38;;;;;;;;;;5086020;28;20055;-76
2022/03/20 14:56:33;;;;;;;29.92;18.98;;;;;;;;;;5082804;28;20052;-76
2022/03/20 14:59:00;;;;;;;26.75;18.30;;;;;;;;;;5082220;28;20047;-76
2022/03/20 15:01:29;;;;;;;27.92;19.60;;;;;;;;;;5085942;28;20059;-76
2022/03/20 15:03:57;;;;;;;29.92;19.60;;;;;;;;;;5085336;28;20411;-76
2022/03/20 15:06:24;;;;;;;26.50;19.50;;;;;;;;;;5080399;28;20047;-76
2022/03/20 15:11:37;;;;;;;28.55;19.65;;;;;;;;;;5083307;28;20058;-76
2022/03/20 15:14:05;;;;;;;25.60;17.77;;;;;;;;;;5086263;28;20441;-76
2022/03/20 15:16:34;;;;;;;29.60;19.90;;;;;;;;;;5081722;28;20052;-76
2022/03/20 15:19:03;;;;;;;29.17;20.02;;;;;;;;;;5082416;28;20745;-77
2022/03/20 15:21:31;;;;;;;32.55;21.02;;;;;;;;;;5084991;28;20491;-78